createdAt,value
2023-02-06T00:00:56.515Z,29.80
2023-02-06T00:03:24.031Z,30.63
2023-02-06T00:06:01.176Z,33.57
2023-02-06T00:08:29.136Z,34.77
2023-02-06T00:10:56.618Z,34.20
2023-02-06T00:13:24.158Z,30.30
2023-02-06T00:15:51.678Z,37.07
2023-02-06T00:18:19.260Z,42.53
2023-02-06T00:20:46.729Z,33.80
2023-02-06T00:23:14.215Z,31.47
2023-02-06T00:25:41.668Z,22.27
2023-02-06T00:28:09.216Z,26.53
2023-02-06T00:30:36.834Z,29.73
2023-02-06T00:33:04.447Z,33.37
2023-02-06T00:35:32.050Z,35.07
2023-02-06T00:37:59.603Z,31.83
2023-02-06T00:40:27.091Z,28.60
2023-02-06T00:42:54.724Z,27.70
2023-02-06T00:45:22.229Z,23.30
2023-02-06T00:47:49.733Z,32.10
2023-02-06T00:50:17.462Z,26.53
2023-02-06T00:52:45.243Z,38.10
2023-02-06T00:55:12.947Z,35.83
2023-02-06T00:57:40.510Z,35.30
2023-02-06T01:00:08.744Z,27.13
2023-02-06T01:02:36.636Z,27.53
2023-02-06T01:05:04.189Z,27.13
2023-02-06T01:07:31.711Z,30.70
2023-02-06T01:09:59.184Z,32.63
2023-02-06T01:12:26.768Z,40.53
2023-02-06T01:14:54.252Z,34.10
2023-02-06T01:17:21.820Z,30.63
2023-02-06T01:19:49.383Z,37.77
2023-02-06T01:22:16.928Z,27.67
2023-02-06T01:24:44.425Z,36.97
2023-02-06T01:27:14.149Z,32.67
2023-02-06T01:29:41.674Z,35.83
2023-02-06T01:32:09.261Z,21.67
2023-02-06T01:34:36.807Z,37.33
2023-02-06T01:37:04.323Z,41.73
2023-02-06T01:39:31.913Z,28.07
2023-02-06T01:41:59.479Z,33.03
2023-02-06T01:44:27.232Z,41.20
2023-02-06T01:46:56.029Z,41.87
2023-02-06T01:49:23.599Z,24.50
2023-02-06T01:51:54.586Z,38.00
2023-02-06T01:54:22.649Z,38.27
2023-02-06T01:56:59.673Z,42.20
2023-02-06T01:59:27.610Z,30.50
2023-02-06T02:01:55.118Z,28.67
2023-02-06T02:04:24.404Z,31.40
2023-02-06T02:07:10.871Z,23.97
2023-02-06T02:09:38.458Z,43.13
2023-02-06T02:12:06.039Z,22.30
2023-02-06T02:14:33.676Z,37.70
2023-02-06T02:17:01.157Z,25.40
2023-02-06T02:19:54.919Z,33.53
2023-02-06T02:22:25.373Z,27.93
2023-02-06T02:25:05.112Z,29.83
2023-02-06T02:27:35.472Z,35.60
2023-02-06T02:30:17.982Z,25.70
2023-02-06T02:32:57.786Z,30.73
2023-02-06T02:35:29.396Z,34.00
2023-02-06T02:38:03.735Z,43.63
2023-02-06T02:40:34.135Z,30.60
2023-02-06T02:43:07.567Z,18.07
2023-02-06T02:45:44.103Z,29.47
2023-02-06T02:48:14.832Z,33.60
2023-02-06T02:50:42.662Z,35.70
2023-02-06T02:53:11.198Z,36.20
2023-02-06T02:55:39.017Z,36.90
2023-02-06T02:58:08.082Z,27.00
2023-02-06T03:00:37.776Z,21.97
2023-02-06T03:03:06.290Z,33.50
2023-02-06T03:05:34.192Z,39.47
2023-02-06T03:08:04.768Z,31.53
2023-02-06T03:10:32.294Z,33.07
2023-02-06T03:13:02.964Z,26.60
2023-02-06T03:15:34.707Z,33.50
2023-02-06T03:18:09.750Z,26.47
2023-02-06T03:20:38.454Z,28.30
2023-02-06T03:23:07.299Z,39.03
2023-02-06T03:25:37.874Z,33.57
2023-02-06T03:28:11.411Z,32.23
2023-02-06T03:30:39.784Z,36.00
2023-02-06T03:33:08.452Z,30.07
2023-02-06T03:35:37.743Z,32.77
2023-02-06T03:38:07.200Z,25.13
2023-02-06T03:40:35.009Z,38.27
2023-02-06T03:43:05.568Z,38.90
2023-02-06T03:45:41.325Z,32.90
2023-02-06T03:48:12.276Z,31.23
2023-02-06T03:50:42.523Z,34.63
2023-02-06T03:53:11.740Z,42.37
2023-02-06T03:55:39.780Z,26.07
2023-02-06T03:58:09.606Z,38.40
2023-02-06T04:00:38.260Z,32.03
2023-02-06T04:03:05.844Z,27.47
2023-02-06T04:05:33.577Z,36.40
2023-02-06T04:08:01.175Z,35.77
2023-02-06T04:10:28.885Z,38.10
2023-02-06T04:12:56.409Z,43.10
2023-02-06T04:15:24.276Z,32.50
2023-02-06T04:17:59.900Z,31.43
2023-02-06T04:20:28.606Z,32.13
2023-02-06T04:22:56.222Z,53.97
2023-02-06T04:25:24.076Z,32.23
2023-02-06T04:27:51.602Z,43.23
2023-02-06T04:30:19.307Z,34.17
2023-02-06T04:32:46.851Z,39.87
2023-02-06T04:35:14.337Z,31.03
2023-02-06T04:37:41.873Z,41.93
2023-02-06T04:40:09.788Z,31.23
2023-02-06T04:42:37.340Z,45.23
2023-02-06T04:45:04.979Z,44.17
2023-02-06T04:47:32.476Z,32.33
2023-02-06T04:50:00.118Z,29.40
2023-02-06T04:52:27.623Z,28.73
2023-02-06T04:54:55.340Z,38.73
2023-02-06T04:57:25.315Z,34.97
2023-02-06T04:59:52.846Z,44.20
2023-02-06T05:02:20.343Z,37.23
2023-02-06T05:04:47.923Z,45.73
2023-02-06T05:07:15.456Z,32.43
2023-02-06T05:09:42.934Z,41.60
2023-02-06T05:12:12.057Z,41.33
2023-02-06T05:14:40.794Z,41.83
2023-02-06T05:17:08.251Z,37.10
2023-02-06T05:19:35.832Z,40.63
2023-02-06T05:22:03.335Z,43.40
2023-02-06T05:24:30.887Z,39.10
2023-02-06T05:26:58.407Z,34.43
2023-02-06T05:29:26.551Z,56.00
2023-02-06T05:31:54.126Z,48.47
2023-02-06T05:34:21.751Z,50.77
2023-02-06T05:36:49.253Z,64.73
2023-02-06T05:39:16.851Z,45.87
2023-02-06T05:41:44.330Z,42.90
2023-02-06T05:44:11.843Z,49.70
2023-02-06T05:46:39.510Z,43.87
2023-02-06T05:49:07.070Z,52.13
2023-02-06T05:51:34.572Z,46.27
2023-02-06T05:54:02.362Z,81.97
2023-02-06T05:56:29.838Z,54.97
2023-02-06T05:58:57.420Z,71.00
2023-02-06T06:01:24.935Z,56.87
2023-02-06T06:03:52.688Z,44.27
2023-02-06T06:06:20.251Z,30.80
2023-02-06T06:08:47.888Z,87.57
2023-02-06T06:11:15.421Z,83.50
2023-02-06T06:13:42.981Z,66.50
2023-02-06T06:16:10.460Z,64.07
2023-02-06T06:18:39.322Z,47.87
2023-02-06T06:21:06.928Z,71.50
2023-02-06T06:23:34.448Z,60.77
2023-02-06T06:26:01.941Z,59.13
2023-02-06T06:28:29.542Z,29.87
2023-02-06T06:31:03.707Z,53.73
2023-02-06T06:33:31.452Z,58.03
2023-02-06T06:35:59.018Z,74.80
2023-02-06T06:38:26.927Z,60.50
2023-02-06T06:40:54.381Z,80.80
2023-02-06T06:43:21.919Z,58.83
2023-02-06T06:45:49.434Z,80.37
2023-02-06T06:48:16.965Z,91.87
2023-02-06T06:50:44.475Z,72.53
2023-02-06T06:53:12.042Z,76.20
2023-02-06T06:55:39.520Z,83.90
2023-02-06T06:58:07.026Z,80.87
2023-02-06T07:00:34.664Z,60.43
2023-02-06T07:03:02.277Z,73.47
2023-02-06T07:05:29.833Z,70.10
2023-02-06T07:07:57.365Z,61.23
2023-02-06T07:10:24.838Z,59.53
2023-02-06T07:12:52.478Z,84.03
2023-02-06T07:15:20.775Z,64.53
2023-02-06T07:17:48.285Z,58.40
2023-02-06T07:20:16.041Z,75.03
2023-02-06T07:22:43.540Z,74.80
2023-02-06T07:25:11.134Z,90.20
2023-02-06T07:27:38.630Z,77.13
2023-02-06T07:30:06.662Z,72.60
2023-02-06T07:32:37.203Z,91.37
2023-02-06T07:35:04.932Z,68.33
2023-02-06T07:37:32.614Z,77.03
2023-02-06T07:40:00.171Z,82.50
2023-02-06T07:42:27.727Z,74.57
2023-02-06T07:44:55.234Z,72.20
2023-02-06T07:47:22.747Z,73.43
2023-02-06T07:49:50.343Z,52.80
2023-02-06T07:52:17.870Z,64.33
2023-02-06T07:54:45.437Z,67.17
2023-02-06T07:57:12.911Z,56.80
2023-02-06T07:59:40.521Z,64.37
2023-02-06T08:02:09.785Z,35.07
2023-02-06T08:04:37.370Z,46.50
2023-02-06T08:07:05.351Z,37.67
2023-02-06T08:09:33.600Z,69.70
2023-02-06T08:12:01.070Z,75.10
2023-02-06T08:14:28.729Z,64.87
2023-02-06T08:16:56.250Z,34.00
2023-02-06T08:19:23.878Z,44.97
2023-02-06T08:21:51.474Z,43.67
2023-02-06T08:24:19.125Z,38.63
2023-02-06T08:26:46.591Z,27.30
2023-02-06T08:29:14.191Z,36.47
2023-02-06T08:31:42.482Z,26.33
2023-02-06T08:34:11.759Z,34.23
2023-02-06T08:36:39.288Z,23.80
2023-02-06T08:39:07.015Z,24.47
2023-02-06T08:41:38.591Z,21.83
2023-02-06T08:44:07.651Z,21.90
2023-02-06T08:46:35.494Z,26.13
2023-02-06T08:49:04.363Z,19.83
2023-02-06T08:51:32.334Z,19.37
2023-02-06T08:54:01.039Z,21.53
2023-02-06T08:56:28.974Z,23.13
2023-02-06T08:58:58.070Z,18.97
2023-02-06T09:01:26.037Z,23.90
2023-02-06T09:03:57.912Z,26.27
2023-02-06T09:06:26.056Z,27.47
2023-02-06T09:08:53.898Z,19.47
2023-02-06T09:11:22.380Z,29.13
2023-02-06T09:13:50.148Z,31.97
2023-02-06T09:16:18.712Z,40.20
2023-02-06T09:18:46.486Z,25.40
2023-02-06T09:21:15.334Z,37.53
2023-02-06T09:23:43.982Z,24.00
2023-02-06T09:26:15.708Z,26.40
2023-02-06T09:28:43.614Z,17.43
2023-02-06T09:31:11.473Z,21.47
2023-02-06T09:33:40.240Z,34.10
2023-02-06T09:36:09.308Z,22.07
2023-02-06T09:38:38.922Z,20.60
2023-02-06T09:41:12.164Z,33.20
2023-02-06T09:43:42.515Z,26.07
2023-02-06T09:46:12.711Z,33.33
2023-02-06T09:48:40.886Z,32.20
2023-02-06T09:51:26.465Z,30.77
2023-02-06T09:54:16.242Z,33.00
2023-02-06T09:56:43.767Z,52.17
2023-02-06T09:59:34.623Z,43.50
2023-02-06T10:02:02.476Z,49.67
2023-02-06T10:04:33.046Z,55.10
2023-02-06T10:07:08.339Z,59.93
2023-02-06T10:09:42.012Z,84.67
2023-02-06T10:12:18.561Z,72.80
2023-02-06T10:14:51.155Z,96.80
2023-02-06T10:17:21.228Z,101.20
2023-02-06T10:19:48.801Z,94.37
2023-02-06T10:22:28.675Z,108.10
2023-02-06T10:25:06.975Z,146.17
2023-02-06T10:27:35.859Z,136.43
2023-02-06T10:30:04.190Z,139.93
2023-02-06T10:32:38.160Z,150.13
2023-02-06T10:35:14.856Z,143.77
2023-02-06T10:38:01.090Z,118.50
2023-02-06T10:40:40.916Z,107.93
2023-02-06T10:43:14.274Z,104.90
2023-02-06T10:45:52.713Z,79.00
2023-02-06T10:48:20.319Z,76.97
2023-02-06T10:51:11.033Z,91.30
2023-02-06T10:53:47.844Z,94.17
2023-02-06T10:56:17.897Z,94.13
2023-02-06T10:59:00.559Z,81.57
2023-02-06T11:01:31.756Z,79.57
2023-02-06T11:04:03.969Z,69.40
2023-02-06T11:06:31.960Z,83.93
2023-02-06T11:08:59.580Z,73.43
2023-02-06T11:11:29.011Z,70.77
2023-02-06T11:13:59.484Z,73.27
2023-02-06T11:16:27.955Z,64.97
2023-02-06T11:18:56.834Z,81.60
2023-02-06T11:21:42.527Z,88.50
2023-02-06T11:24:14.565Z,118.37
2023-02-06T11:26:43.483Z,115.37
2023-02-06T11:29:23.288Z,93.73
2023-02-06T11:32:01.629Z,102.83
2023-02-06T11:34:34.473Z,102.73
2023-02-06T11:37:03.956Z,104.03
2023-02-06T11:39:32.864Z,86.97
2023-02-06T11:42:03.221Z,87.97
2023-02-06T11:44:36.555Z,101.43
2023-02-06T11:47:39.761Z,108.07
2023-02-06T11:50:13.369Z,99.33
2023-02-06T11:52:46.747Z,102.23
2023-02-06T11:55:25.601Z,95.53
2023-02-06T11:58:05.754Z,75.43
2023-02-06T12:00:33.842Z,78.97
2023-02-06T12:03:01.371Z,77.07
2023-02-06T12:05:31.405Z,76.93
2023-02-06T12:07:58.970Z,54.63
2023-02-06T12:10:26.881Z,61.13
2023-02-06T12:12:56.931Z,60.10
2023-02-06T12:15:46.133Z,57.40
2023-02-06T12:18:16.626Z,55.17
2023-02-06T12:20:54.760Z,62.73
2023-02-06T12:23:32.217Z,50.30
2023-02-06T12:26:01.566Z,58.27
2023-02-06T12:28:39.497Z,57.17
2023-02-06T12:31:13.367Z,55.23
2023-02-06T12:33:43.126Z,49.10
2023-02-06T12:36:20.952Z,50.37
2023-02-06T12:38:56.288Z,45.53
2023-02-06T12:41:36.082Z,51.50
2023-02-06T12:44:09.363Z,62.03
2023-02-06T12:46:37.205Z,64.70
2023-02-06T12:49:39.968Z,55.13
2023-02-06T12:52:15.109Z,65.40
2023-02-06T12:54:46.080Z,53.63
2023-02-06T12:57:16.544Z,53.73
2023-02-06T12:59:58.279Z,54.67
2023-02-06T13:02:26.260Z,43.27
2023-02-06T13:04:54.061Z,33.97
2023-02-06T13:07:22.991Z,32.63
2023-02-06T13:09:53.057Z,42.27
2023-02-06T13:12:22.049Z,37.73
2023-02-06T13:14:51.662Z,37.20
2023-02-06T13:17:23.185Z,41.20
2023-02-06T13:19:52.868Z,42.23
2023-02-06T13:22:20.328Z,28.93
2023-02-06T13:24:49.274Z,43.53
2023-02-06T13:27:37.377Z,57.60
2023-02-06T13:30:37.088Z,66.60
2023-02-06T13:33:16.877Z,51.20
2023-02-06T13:35:57.843Z,61.57
2023-02-06T13:38:25.364Z,66.83
2023-02-06T13:41:11.442Z,49.23
2023-02-06T13:43:39.707Z,64.57
2023-02-06T13:46:09.649Z,53.60
2023-02-06T13:48:55.141Z,51.87
2023-02-06T13:51:40.941Z,58.33
2023-02-06T13:54:14.499Z,62.67
2023-02-06T13:56:48.657Z,48.07
2023-02-06T13:59:24.575Z,47.53
2023-02-06T14:02:03.574Z,50.60
2023-02-06T14:04:31.718Z,56.57
2023-02-06T14:06:59.226Z,51.20
2023-02-06T14:09:36.266Z,52.63
2023-02-06T14:12:26.064Z,43.30
2023-02-06T14:15:08.887Z,35.63
2023-02-06T14:17:36.381Z,59.87
2023-02-06T14:20:09.946Z,41.40
2023-02-06T14:22:45.545Z,39.43
2023-02-06T14:25:13.094Z,34.03
2023-02-06T14:27:59.447Z,40.57
2023-02-06T14:30:27.089Z,41.57
2023-02-06T14:33:13.429Z,38.37
2023-02-06T14:35:51.103Z,45.67
2023-02-06T14:38:41.637Z,41.60
2023-02-06T14:41:09.610Z,43.57
2023-02-06T14:43:39.635Z,44.40
2023-02-06T14:46:10.493Z,43.47
2023-02-06T14:48:41.101Z,39.10
2023-02-06T14:51:09.513Z,50.13
2023-02-06T14:53:38.134Z,43.63
2023-02-06T14:56:16.432Z,49.03
2023-02-06T14:58:44.598Z,45.43
2023-02-06T15:01:32.416Z,40.40
2023-02-06T15:04:18.752Z,41.00
2023-02-06T15:06:55.565Z,35.03
2023-02-06T15:09:33.570Z,39.67
2023-02-06T15:12:02.615Z,46.47
2023-02-06T15:14:35.269Z,40.13
2023-02-06T15:17:03.052Z,44.87
2023-02-06T15:19:34.549Z,50.37
2023-02-06T15:22:03.377Z,40.00
2023-02-06T15:24:49.477Z,46.43
2023-02-06T15:27:23.856Z,42.20
2023-02-06T15:29:51.683Z,35.03
2023-02-06T15:32:28.348Z,37.63
2023-02-06T15:34:56.097Z,41.13
2023-02-06T15:37:26.449Z,37.03
2023-02-06T15:39:54.292Z,36.07
2023-02-06T15:42:22.884Z,36.83
2023-02-06T15:44:50.898Z,29.07
2023-02-06T15:47:18.873Z,39.67
2023-02-06T15:49:47.960Z,40.23
2023-02-06T15:52:31.509Z,37.17
2023-02-06T15:54:59.932Z,34.17
2023-02-06T15:57:35.837Z,39.13
2023-02-06T16:00:04.721Z,35.63
2023-02-06T16:02:36.794Z,31.50
2023-02-06T16:05:05.425Z,42.80
2023-02-06T16:07:33.914Z,34.40
2023-02-06T16:10:01.502Z,38.00
2023-02-06T16:12:32.576Z,37.97
2023-02-06T16:15:01.142Z,34.47
2023-02-06T16:17:32.836Z,41.17
2023-02-06T16:20:05.044Z,32.90
2023-02-06T16:22:37.257Z,30.97
2023-02-06T16:25:14.024Z,31.77
2023-02-06T16:27:45.577Z,32.93
2023-02-06T16:30:21.626Z,37.13
2023-02-06T16:32:49.312Z,35.87
2023-02-06T16:35:16.830Z,34.93
2023-02-06T16:37:44.340Z,34.57
2023-02-06T16:40:11.996Z,34.00
2023-02-06T16:42:40.638Z,37.97
2023-02-06T16:45:28.463Z,29.77
2023-02-06T16:47:56.122Z,31.43
2023-02-06T16:50:23.609Z,34.47
2023-02-06T16:52:52.463Z,35.30
2023-02-06T16:55:23.271Z,35.23
2023-02-06T16:57:57.078Z,36.00
2023-02-06T17:00:31.017Z,30.10
2023-02-06T17:02:59.280Z,31.07
2023-02-06T17:05:28.582Z,34.63
2023-02-06T17:07:56.119Z,34.63
2023-02-06T17:10:25.447Z,33.50
2023-02-06T17:12:53.064Z,39.57
2023-02-06T17:15:21.168Z,29.67
2023-02-06T17:17:48.746Z,39.37
2023-02-06T17:20:36.270Z,31.63
2023-02-06T17:23:04.178Z,30.70
2023-02-06T17:25:32.063Z,36.73
2023-02-06T17:28:00.072Z,34.17
2023-02-06T17:30:27.644Z,39.07
2023-02-06T17:32:55.343Z,34.07
2023-02-06T17:35:22.973Z,42.33
2023-02-06T17:37:50.613Z,30.80
2023-02-06T17:40:26.461Z,41.37
2023-02-06T17:42:54.152Z,40.43
2023-02-06T17:45:21.957Z,34.40
2023-02-06T17:47:49.708Z,36.57
2023-02-06T17:50:18.131Z,33.77
2023-02-06T17:52:45.673Z,29.30
2023-02-06T17:55:13.238Z,36.90
2023-02-06T17:57:41.107Z,29.60
2023-02-06T18:00:12.576Z,33.70
2023-02-06T18:02:40.344Z,32.73
2023-02-06T18:05:08.248Z,34.23
2023-02-06T18:07:35.807Z,29.63
2023-02-06T18:10:03.357Z,32.67
2023-02-06T18:12:31.028Z,36.07
2023-02-06T18:14:58.567Z,36.07
2023-02-06T18:17:26.123Z,34.90
2023-02-06T18:19:53.651Z,34.03
2023-02-06T18:22:22.086Z,34.93
2023-02-06T18:24:50.359Z,30.97
2023-02-06T18:27:18.766Z,30.73
2023-02-06T18:29:50.094Z,36.27
2023-02-06T18:32:18.945Z,33.77
2023-02-06T18:34:46.957Z,37.97
2023-02-06T18:37:14.833Z,36.50
2023-02-06T18:39:42.376Z,35.93
2023-02-06T18:42:11.209Z,34.07
2023-02-06T18:44:38.881Z,31.87
2023-02-06T18:47:06.456Z,34.57
2023-02-06T18:49:34.467Z,39.07
2023-02-06T18:52:01.991Z,34.57
2023-02-06T18:54:29.547Z,32.50
2023-02-06T18:56:57.100Z,33.50
2023-02-06T18:59:24.778Z,42.70
2023-02-06T19:01:52.438Z,33.47
2023-02-06T19:04:20.212Z,33.37
2023-02-06T19:06:48.227Z,34.60
2023-02-06T19:09:15.793Z,26.70
2023-02-06T19:11:43.361Z,32.67
2023-02-06T19:14:13.105Z,32.00
2023-02-06T19:16:40.709Z,29.27
2023-02-06T19:19:08.349Z,28.57
2023-02-06T19:21:35.932Z,33.50
2023-02-06T19:24:03.906Z,32.70
2023-02-06T19:26:31.492Z,31.67
2023-02-06T19:28:59.470Z,40.20
2023-02-06T19:31:27.086Z,32.10
2023-02-06T19:33:56.125Z,32.43
2023-02-06T19:36:24.358Z,31.37
2023-02-06T19:38:54.877Z,25.70
2023-02-06T19:41:23.481Z,30.33
2023-02-06T19:43:51.850Z,22.93
2023-02-06T19:46:20.581Z,29.70
2023-02-06T19:48:49.218Z,30.53
2023-02-06T19:51:17.903Z,26.03
2023-02-06T19:53:45.609Z,25.10
2023-02-06T19:56:13.902Z,26.23
2023-02-06T19:58:41.519Z,28.00
2023-02-06T20:01:09.790Z,23.77
2023-02-06T20:03:37.326Z,27.17
2023-02-06T20:06:06.510Z,31.03
2023-02-06T20:08:34.369Z,27.60
2023-02-06T20:11:09.271Z,24.50
2023-02-06T20:13:37.122Z,29.40
2023-02-06T20:16:05.386Z,22.70
2023-02-06T20:18:38.060Z,28.20
2023-02-06T20:21:05.772Z,28.87
2023-02-06T20:23:33.244Z,23.60
2023-02-06T20:26:02.457Z,25.90
2023-02-06T20:28:32.985Z,26.40
2023-02-06T20:31:00.655Z,27.17
2023-02-06T20:33:28.647Z,19.67
2023-02-06T20:35:56.252Z,28.17
2023-02-06T20:38:23.837Z,27.83
2023-02-06T20:40:51.624Z,28.77
2023-02-06T20:43:19.128Z,33.73
2023-02-06T20:45:46.745Z,29.43
2023-02-06T20:48:14.286Z,26.30
2023-02-06T20:50:41.835Z,29.40
2023-02-06T20:53:09.380Z,25.93
2023-02-06T20:55:39.917Z,27.53
2023-02-06T20:58:07.665Z,26.37
2023-02-06T21:00:35.625Z,40.03
2023-02-06T21:03:03.238Z,31.97
2023-02-06T21:05:31.137Z,30.83
2023-02-06T21:07:58.717Z,38.80
2023-02-06T21:10:26.701Z,39.33
2023-02-06T21:12:54.698Z,35.77
2023-02-06T21:15:22.314Z,30.97
2023-02-06T21:17:49.907Z,36.43
2023-02-06T21:20:17.468Z,34.80
2023-02-06T21:22:45.043Z,38.00
2023-02-06T21:25:12.556Z,38.70
2023-02-06T21:27:41.278Z,33.50
2023-02-06T21:30:09.023Z,27.87
2023-02-06T21:32:36.545Z,32.67
2023-02-06T21:35:04.047Z,38.07
2023-02-06T21:37:31.845Z,34.63
2023-02-06T21:39:59.377Z,33.23
2023-02-06T21:42:27.035Z,36.23
2023-02-06T21:44:54.527Z,36.27
2023-02-06T21:47:22.060Z,38.07
2023-02-06T21:49:49.507Z,41.07
2023-02-06T21:52:17.209Z,37.90
2023-02-06T21:54:44.704Z,34.27
2023-02-06T21:57:12.212Z,30.83
2023-02-06T21:59:39.663Z,42.80
2023-02-06T22:02:07.443Z,33.40
2023-02-06T22:04:34.887Z,34.47
2023-02-06T22:07:02.413Z,33.77
2023-02-06T22:09:29.914Z,34.33
2023-02-06T22:11:57.473Z,36.57
2023-02-06T22:14:24.989Z,29.83
2023-02-06T22:16:52.545Z,35.17
2023-02-06T22:19:20.045Z,37.83
2023-02-06T22:21:47.545Z,43.43
2023-02-06T22:24:15.060Z,39.50
2023-02-06T22:26:42.938Z,36.63
2023-02-06T22:29:15.340Z,40.60
2023-02-06T22:31:43.565Z,45.00
2023-02-06T22:34:18.498Z,38.63
2023-02-06T22:36:46.377Z,38.77
2023-02-06T22:39:14.563Z,40.27
2023-02-06T22:41:43.038Z,42.13
2023-02-06T22:44:11.094Z,40.20
2023-02-06T22:46:39.973Z,42.20
2023-02-06T22:49:08.015Z,38.23
2023-02-06T22:51:36.325Z,40.90
2023-02-06T22:54:04.448Z,46.77
2023-02-06T22:56:33.681Z,47.73
2023-02-06T22:59:09.097Z,42.20
2023-02-06T23:01:43.825Z,42.10
2023-02-06T23:04:15.715Z,45.57
2023-02-06T23:06:43.663Z,39.60
2023-02-06T23:09:14.579Z,41.00
2023-02-06T23:11:42.684Z,42.57
2023-02-06T23:14:12.155Z,42.97
2023-02-06T23:16:39.712Z,61.30
2023-02-06T23:19:07.868Z,60.07
2023-02-06T23:21:39.004Z,49.10
2023-02-06T23:24:07.237Z,59.20
2023-02-06T23:26:35.361Z,66.73
2023-02-06T23:29:04.913Z,49.00
2023-02-06T23:31:32.672Z,52.37
2023-02-06T23:34:00.207Z,51.30
2023-02-06T23:36:28.382Z,61.47
2023-02-06T23:38:56.036Z,59.70
2023-02-06T23:41:25.311Z,57.53
2023-02-06T23:43:53.650Z,56.60
2023-02-06T23:46:21.567Z,49.43
2023-02-06T23:48:49.920Z,60.53
2023-02-06T23:51:18.030Z,52.83
2023-02-06T23:53:45.649Z,52.00
2023-02-06T23:56:14.556Z,44.40
2023-02-06T23:58:42.508Z,49.87
